Time;durP1;ratioP1;P1;durP2;ratioP2;P2;SDS_P1;SDS_P2;PMS_P1;PMS_P2;Temp;Humidity;BMP_temperature;BMP_pressure;BME280_temperature;BME280_humidity;BME280_pressure;Samples;Min_cycle;Max_cycle;Signal;HPM_P1;HPM_P2
2022/01/29 00:01:29;;;;;;;4.33;3.10;;;;;;;;;;5032660;28;20186;-76
2022/01/29 00:03:54;;;;;;;3.97;2.43;;;;;;;;;;5033426;28;20203;-76
2022/01/29 00:06:19;;;;;;;3.97;2.73;;;;;;;;;;5032306;28;20178;-76
2022/01/29 00:08:45;;;;;;;2.90;2.50;;;;;;;;;;5031897;28;20182;-76
2022/01/29 00:11:13;;;;;;;3.37;2.20;;;;;;;;;;5032646;28;20182;-76
2022/01/29 00:13:39;;;;;;;3.30;2.37;;;;;;;;;;5033387;28;20201;-76
2022/01/29 00:16:04;;;;;;;2.43;2.00;;;;;;;;;;5035835;28;20185;-76
2022/01/29 00:18:30;;;;;;;3.13;2.00;;;;;;;;;;5031958;28;20201;-76
2022/01/29 00:20:55;;;;;;;4.73;1.53;;;;;;;;;;5035585;28;20181;-76
2022/01/29 00:23:20;;;;;;;3.93;2.00;;;;;;;;;;5031467;28;20236;-76
2022/01/29 00:25:45;;;;;;;2.43;1.60;;;;;;;;;;5033182;28;20188;-76
2022/01/29 00:28:12;;;;;;;2.60;1.67;;;;;;;;;;5031448;28;20198;-76
2022/01/29 00:30:41;;;;;;;5.47;2.13;;;;;;;;;;5030890;28;20185;-76
2022/01/29 00:33:07;;;;;;;3.03;1.83;;;;;;;;;;5050283;28;20202;-76
2022/01/29 00:35:32;;;;;;;2.33;1.80;;;;;;;;;;5033934;28;20199;-76
2022/01/29 00:37:57;;;;;;;4.27;1.83;;;;;;;;;;5032054;28;20189;-76
2022/01/29 00:40:23;;;;;;;2.23;1.70;;;;;;;;;;5035470;28;20210;-76
2022/01/29 00:42:48;;;;;;;3.37;1.23;;;;;;;;;;5050649;28;20206;-76
2022/01/29 00:45:14;;;;;;;3.47;1.60;;;;;;;;;;5037112;28;20271;-76
2022/01/29 00:47:39;;;;;;;1.90;1.57;;;;;;;;;;5029237;28;20181;-76
2022/01/29 00:50:05;;;;;;;2.23;1.60;;;;;;;;;;5032208;28;20174;-76
2022/01/29 00:52:30;;;;;;;2.53;2.13;;;;;;;;;;5050888;28;20178;-76
2022/01/29 00:54:55;;;;;;;2.20;1.70;;;;;;;;;;5049348;28;20272;-76
2022/01/29 00:57:20;;;;;;;1.77;1.67;;;;;;;;;;5032230;28;20182;-76
2022/01/29 00:59:45;;;;;;;4.60;2.13;;;;;;;;;;5032629;28;20229;-76
2022/01/29 01:02:11;;;;;;;3.70;1.70;;;;;;;;;;5032555;28;20203;-76
2022/01/29 01:04:39;;;;;;;2.23;1.40;;;;;;;;;;5031355;28;20182;-76
2022/01/29 01:07:04;;;;;;;2.10;1.70;;;;;;;;;;5032508;28;20184;-76
2022/01/29 01:09:30;;;;;;;2.87;1.60;;;;;;;;;;5033169;28;20178;-76
2022/01/29 01:11:55;;;;;;;4.37;1.47;;;;;;;;;;5032530;28;20269;-76
2022/01/29 01:14:20;;;;;;;2.43;1.40;;;;;;;;;;5034621;28;20174;-76
2022/01/29 01:16:45;;;;;;;1.50;1.30;;;;;;;;;;5051320;28;20190;-76
2022/01/29 01:19:10;;;;;;;1.30;1.20;;;;;;;;;;5031091;28;20271;-76
2022/01/29 01:21:36;;;;;;;2.30;1.40;;;;;;;;;;5049263;28;20174;-76
2022/01/29 01:24:01;;;;;;;4.43;1.63;;;;;;;;;;5031310;28;20178;-76
2022/01/29 01:26:26;;;;;;;3.00;1.50;;;;;;;;;;5031890;28;20181;-76
2022/01/29 01:28:51;;;;;;;2.60;1.30;;;;;;;;;;5031839;28;20182;-76
2022/01/29 01:31:16;;;;;;;4.13;1.57;;;;;;;;;;5030991;28;20272;-76
2022/01/29 01:33:43;;;;;;;1.63;1.40;;;;;;;;;;5030864;28;20197;-76
2022/01/29 01:36:08;;;;;;;1.50;1.40;;;;;;;;;;5032139;28;20212;-76
2022/01/29 01:38:49;;;;;;;4.67;1.40;;;;;;;;;;5032080;28;20225;-76
2022/01/29 01:41:20;;;;;;;2.17;1.23;;;;;;;;;;5049697;28;20209;-76
2022/01/29 01:43:45;;;;;;;2.20;1.50;;;;;;;;;;5032399;28;20198;-76
2022/01/29 01:46:10;;;;;;;3.30;2.37;;;;;;;;;;5033294;28;20185;-76
2022/01/29 01:48:36;;;;;;;2.30;1.10;;;;;;;;;;5031802;28;20504;-76
2022/01/29 01:51:01;;;;;;;2.77;1.13;;;;;;;;;;5032110;28;20186;-76
2022/01/29 01:53:26;;;;;;;4.33;1.70;;;;;;;;;;5031101;28;20205;-76
2022/01/29 01:55:51;;;;;;;2.40;1.50;;;;;;;;;;5031173;28;20178;-76
2022/01/29 01:58:17;;;;;;;2.10;1.70;;;;;;;;;;5027860;28;20321;-76
2022/01/29 02:00:42;;;;;;;2.60;2.00;;;;;;;;;;5015220;28;20273;-76
2022/01/29 02:03:08;;;;;;;2.40;1.83;;;;;;;;;;5012415;28;20290;-76
2022/01/29 02:05:33;;;;;;;3.27;2.10;;;;;;;;;;5011619;28;20207;-76
2022/01/29 02:08:01;;;;;;;2.23;2.00;;;;;;;;;;5008059;28;20182;-76
2022/01/29 02:10:27;;;;;;;5.00;2.03;;;;;;;;;;5010698;28;20171;-76
2022/01/29 02:12:58;;;;;;;2.53;2.07;;;;;;;;;;5015807;28;20186;-76
2022/01/29 02:15:24;;;;;;;5.87;2.47;;;;;;;;;;5010846;28;20269;-76
2022/01/29 02:17:49;;;;;;;4.47;3.30;;;;;;;;;;5026709;28;20251;-76
2022/01/29 02:20:15;;;;;;;4.37;2.27;;;;;;;;;;5013262;28;20289;-76
2022/01/29 02:22:41;;;;;;;3.90;2.53;;;;;;;;;;5012626;28;20209;-76
2022/01/29 02:25:26;;;;;;;3.30;2.50;;;;;;;;;;5011820;28;20209;-76
2022/01/29 02:27:52;;;;;;;4.87;3.07;;;;;;;;;;5028873;28;20454;-76
2022/01/29 02:30:17;;;;;;;7.10;2.80;;;;;;;;;;5013001;28;20179;-76
2022/01/29 02:32:42;;;;;;;3.47;2.27;;;;;;;;;;5014992;28;20210;-76
2022/01/29 02:35:07;;;;;;;3.80;2.20;;;;;;;;;;5032319;28;20175;-76
2022/01/29 02:37:33;;;;;;;3.00;2.10;;;;;;;;;;5014512;28;20209;-76
2022/01/29 02:39:58;;;;;;;2.80;1.80;;;;;;;;;;5014627;28;20225;-76
2022/01/29 02:42:23;;;;;;;1.67;1.57;;;;;;;;;;5021781;28;20202;-76
2022/01/29 02:44:48;;;;;;;1.63;1.53;;;;;;;;;;5030588;28;20175;-76
2022/01/29 02:47:26;;;;;;;1.87;1.43;;;;;;;;;;5012786;28;20171;-76
2022/01/29 02:49:51;;;;;;;1.60;1.50;;;;;;;;;;5015053;28;20170;-76
2022/01/29 02:52:16;;;;;;;4.40;1.90;;;;;;;;;;5015296;28;20228;-76
2022/01/29 02:54:41;;;;;;;2.40;1.73;;;;;;;;;;5015048;28;20175;-76
2022/01/29 02:57:07;;;;;;;4.30;2.03;;;;;;;;;;5014333;28;20240;-76
2022/01/29 02:59:32;;;;;;;2.10;1.90;;;;;;;;;;5042843;28;20218;-76
2022/01/29 03:01:57;;;;;;;4.17;2.20;;;;;;;;;;5034753;28;20344;-76
2022/01/29 03:04:22;;;;;;;2.10;1.90;;;;;;;;;;5033274;28;20263;-76
2022/01/29 03:06:47;;;;;;;4.30;2.10;;;;;;;;;;5033987;28;20192;-76
2022/01/29 03:09:13;;;;;;;2.93;1.93;;;;;;;;;;5033361;28;20213;-76
2022/01/29 03:11:38;;;;;;;2.53;2.13;;;;;;;;;;5033680;28;20174;-76
2022/01/29 03:14:03;;;;;;;4.03;2.33;;;;;;;;;;5034007;28;20178;-76
2022/01/29 03:16:28;;;;;;;2.20;1.90;;;;;;;;;;5031292;28;20196;-76
2022/01/29 03:18:54;;;;;;;3.40;2.20;;;;;;;;;;5033131;28;20229;-76
2022/01/29 03:21:19;;;;;;;3.03;2.03;;;;;;;;;;5033884;28;20174;-76
2022/01/29 03:23:44;;;;;;;4.77;2.17;;;;;;;;;;5050836;28;20202;-76
2022/01/29 03:26:09;;;;;;;3.80;1.50;;;;;;;;;;5050997;28;20162;-76
2022/01/29 03:28:34;;;;;;;4.00;1.70;;;;;;;;;;5051403;28;20214;-76
2022/01/29 03:31:00;;;;;;;3.07;1.80;;;;;;;;;;5051127;28;20189;-75
2022/01/29 03:33:25;;;;;;;1.63;1.50;;;;;;;;;;5033280;28;20196;-75
2022/01/29 03:35:50;;;;;;;3.33;1.50;;;;;;;;;;5034189;28;20178;-76
2022/01/29 03:38:16;;;;;;;3.60;1.70;;;;;;;;;;5033793;28;20251;-76
2022/01/29 03:40:42;;;;;;;1.40;1.27;;;;;;;;;;5032389;28;20186;-75
2022/01/29 03:43:11;;;;;;;1.53;1.43;;;;;;;;;;5032056;28;20197;-76
2022/01/29 03:45:36;;;;;;;1.37;1.10;;;;;;;;;;5032183;28;20170;-76
2022/01/29 03:48:02;;;;;;;2.67;1.20;;;;;;;;;;5031458;28;20288;-76
2022/01/29 03:50:27;;;;;;;4.27;1.80;;;;;;;;;;5032332;28;20170;-76
2022/01/29 03:52:52;;;;;;;3.07;1.30;;;;;;;;;;5051264;28;20189;-76
2022/01/29 03:55:18;;;;;;;2.73;1.80;;;;;;;;;;5050585;28;20170;-76
2022/01/29 03:57:43;;;;;;;3.20;1.27;;;;;;;;;;5034654;28;20526;-76
2022/01/29 04:00:08;;;;;;;2.53;1.67;;;;;;;;;;5049975;28;20232;-76
2022/01/29 04:02:34;;;;;;;2.37;1.90;;;;;;;;;;5032436;28;20194;-76
2022/01/29 04:04:59;;;;;;;4.57;2.00;;;;;;;;;;5032294;28;20190;-76
2022/01/29 04:07:24;;;;;;;2.43;1.90;;;;;;;;;;5032555;28;20185;-75
2022/01/29 04:09:51;;;;;;;3.00;2.10;;;;;;;;;;5032321;28;20185;-76
2022/01/29 04:12:17;;;;;;;1.87;1.33;;;;;;;;;;5032278;28;20190;-76
2022/01/29 04:14:42;;;;;;;3.53;2.33;;;;;;;;;;5032274;28;20216;-75
2022/01/29 04:17:07;;;;;;;5.07;3.43;;;;;;;;;;5031340;28;20240;-75
2022/01/29 04:19:34;;;;;;;5.03;3.60;;;;;;;;;;5032279;28;20174;-76
2022/01/29 04:21:59;;;;;;;5.47;4.10;;;;;;;;;;5032713;28;20494;-76
2022/01/29 04:24:25;;;;;;;5.47;3.83;;;;;;;;;;5032177;28;20307;-76
2022/01/29 04:26:50;;;;;;;3.83;2.67;;;;;;;;;;5032665;28;20174;-76
2022/01/29 04:29:15;;;;;;;5.17;4.17;;;;;;;;;;5032733;28;20197;-76
2022/01/29 04:31:48;;;;;;;8.13;3.87;;;;;;;;;;5030697;28;20179;-75
2022/01/29 04:34:13;;;;;;;5.70;4.07;;;;;;;;;;5031583;28;20329;-76
2022/01/29 04:36:38;;;;;;;6.90;4.17;;;;;;;;;;5029408;28;20189;-75
2022/01/29 04:39:03;;;;;;;6.33;4.20;;;;;;;;;;5031722;28;20174;-76
2022/01/29 04:41:28;;;;;;;6.27;4.50;;;;;;;;;;5029285;28;20193;-76
2022/01/29 04:43:53;;;;;;;4.50;4.00;;;;;;;;;;5046673;28;20209;-76
2022/01/29 04:46:19;;;;;;;5.13;3.63;;;;;;;;;;5032301;28;20170;-76
2022/01/29 04:48:44;;;;;;;7.40;4.73;;;;;;;;;;5031164;28;20249;-76
2022/01/29 04:51:09;;;;;;;6.23;4.40;;;;;;;;;;5050010;28;20194;-76
2022/01/29 04:53:35;;;;;;;7.57;4.83;;;;;;;;;;5033797;28;20173;-76
2022/01/29 04:56:01;;;;;;;10.30;5.70;;;;;;;;;;5032102;28;20205;-75
2022/01/29 04:58:26;;;;;;;10.80;6.30;;;;;;;;;;5032312;28;20212;-76
2022/01/29 05:00:51;;;;;;;7.67;5.20;;;;;;;;;;5031004;28;20177;-75
2022/01/29 05:03:16;;;;;;;9.97;5.97;;;;;;;;;;5032365;28;20215;-76
2022/01/29 05:05:42;;;;;;;6.80;5.50;;;;;;;;;;5028903;28;20257;-76
2022/01/29 05:08:13;;;;;;;8.00;5.60;;;;;;;;;;5032476;28;20186;-75
2022/01/29 05:10:38;;;;;;;11.97;5.70;;;;;;;;;;5031515;28;20182;-76
2022/01/29 05:13:07;;;;;;;6.80;5.23;;;;;;;;;;5051336;28;20240;-75
2022/01/29 05:15:54;;;;;;;6.87;5.20;;;;;;;;;;5046076;28;20273;-76
2022/01/29 05:26:56;;;;;;;7.90;5.60;;;;;;;;;;5050048;28;20273;-76
2022/01/29 05:29:22;;;;;;;6.10;5.40;;;;;;;;;;5030303;28;20185;-75
2022/01/29 05:31:51;;;;;;;8.57;6.50;;;;;;;;;;5031835;28;20182;-75
2022/01/29 05:34:17;;;;;;;10.50;6.50;;;;;;;;;;5031202;28;20202;-75
2022/01/29 05:36:42;;;;;;;12.20;8.10;;;;;;;;;;5049366;28;20190;-75
2022/01/29 05:39:08;;;;;;;9.27;7.33;;;;;;;;;;5031090;28;20166;-75
2022/01/29 05:41:33;;;;;;;8.80;6.23;;;;;;;;;;5031110;28;20178;-75
2022/01/29 05:43:58;;;;;;;11.00;7.77;;;;;;;;;;5031487;28;20190;-75
2022/01/29 05:46:23;;;;;;;8.80;7.20;;;;;;;;;;5031375;28;20186;-75
2022/01/29 05:48:49;;;;;;;10.53;8.30;;;;;;;;;;5030890;28;20189;-75
2022/01/29 05:51:14;;;;;;;20.97;13.37;;;;;;;;;;5049066;28;20181;-75
2022/01/29 05:53:39;;;;;;;16.23;11.07;;;;;;;;;;5031157;28;20189;-75
2022/01/29 05:56:05;;;;;;;16.10;10.17;;;;;;;;;;5030970;28;20182;-75
2022/01/29 05:58:30;;;;;;;12.13;8.90;;;;;;;;;;5029412;28;20186;-75
2022/01/29 06:00:55;;;;;;;9.90;7.87;;;;;;;;;;5031812;28;20192;-75
2022/01/29 06:03:21;;;;;;;11.40;7.50;;;;;;;;;;5031892;28;20296;-75
2022/01/29 06:05:46;;;;;;;9.67;8.43;;;;;;;;;;5035445;28;20189;-75
2022/01/29 06:08:12;;;;;;;10.17;7.23;;;;;;;;;;5035656;28;20182;-76
2022/01/29 06:10:37;;;;;;;12.10;7.20;;;;;;;;;;5035033;28;20178;-75
2022/01/29 06:13:02;;;;;;;13.90;8.47;;;;;;;;;;5052893;28;20194;-75
2022/01/29 06:15:28;;;;;;;12.40;6.73;;;;;;;;;;5035244;28;20180;-75
2022/01/29 06:17:54;;;;;;;16.70;10.67;;;;;;;;;;5054232;28;20178;-75
2022/01/29 06:20:19;;;;;;;11.43;6.90;;;;;;;;;;5034911;28;20494;-75
2022/01/29 06:22:44;;;;;;;55.97;26.93;;;;;;;;;;5033815;28;20206;-75
2022/01/29 06:25:10;;;;;;;84.82;41.53;;;;;;;;;;5034449;28;20224;-75
2022/01/29 06:27:35;;;;;;;25.77;15.13;;;;;;;;;;5034546;28;20209;-75
2022/01/29 06:30:00;;;;;;;41.50;23.57;;;;;;;;;;5035046;28;20261;-75
2022/01/29 06:32:25;;;;;;;35.67;20.17;;;;;;;;;;5032461;28;20202;-75
2022/01/29 06:34:50;;;;;;;15.47;8.73;;;;;;;;;;5034382;28;20230;-75
2022/01/29 06:37:16;;;;;;;8.03;5.43;;;;;;;;;;5035166;28;20679;-75
2022/01/29 06:39:41;;;;;;;7.10;5.07;;;;;;;;;;5033495;28;20232;-75
2022/01/29 06:42:06;;;;;;;8.13;5.07;;;;;;;;;;5035124;28;20206;-75
2022/01/29 06:44:31;;;;;;;7.57;5.30;;;;;;;;;;5033247;28;20239;-75
2022/01/29 06:46:57;;;;;;;8.40;5.23;;;;;;;;;;5034202;28;20181;-75
2022/01/29 06:49:22;;;;;;;6.77;5.67;;;;;;;;;;5052128;28;20190;-75
2022/01/29 06:51:47;;;;;;;7.03;5.30;;;;;;;;;;5034143;28;20324;-75
2022/01/29 06:54:12;;;;;;;7.00;6.30;;;;;;;;;;5034962;28;20182;-75
2022/01/29 06:56:37;;;;;;;7.47;5.43;;;;;;;;;;5034321;28;20174;-75
2022/01/29 06:59:02;;;;;;;8.50;5.38;;;;;;;;;;5033804;28;20218;-75
2022/01/29 07:01:28;;;;;;;8.53;5.37;;;;;;;;;;5033208;28;20185;-76
2022/01/29 07:03:53;;;;;;;7.60;5.53;;;;;;;;;;5051607;28;20202;-75
2022/01/29 07:06:18;;;;;;;8.17;5.63;;;;;;;;;;5035008;28;20240;-75
2022/01/29 07:08:43;;;;;;;8.73;6.27;;;;;;;;;;5031910;28;20177;-75
2022/01/29 07:11:09;;;;;;;9.27;6.40;;;;;;;;;;5030568;28;20174;-75
2022/01/29 07:13:35;;;;;;;9.47;6.93;;;;;;;;;;5034524;28;20201;-75
2022/01/29 07:16:00;;;;;;;8.87;5.80;;;;;;;;;;5050924;28;20174;-75
2022/01/29 07:18:25;;;;;;;8.97;6.50;;;;;;;;;;5029998;28;20237;-75
2022/01/29 07:20:50;;;;;;;8.77;5.93;;;;;;;;;;5033090;28;20426;-75
2022/01/29 07:23:15;;;;;;;7.03;4.57;;;;;;;;;;5033116;28;20208;-75
2022/01/29 07:25:41;;;;;;;7.87;5.50;;;;;;;;;;5033831;28;20178;-75
2022/01/29 07:28:06;;;;;;;9.30;6.40;;;;;;;;;;5032933;28;20182;-75
2022/01/29 07:30:31;;;;;;;6.73;4.60;;;;;;;;;;5030565;28;20197;-75
2022/01/29 07:32:56;;;;;;;6.67;4.93;;;;;;;;;;5046706;28;20209;-75
2022/01/29 07:35:21;;;;;;;10.57;7.33;;;;;;;;;;5030135;28;20171;-75
2022/01/29 07:37:47;;;;;;;20.87;13.63;;;;;;;;;;5033781;28;20278;-75
2022/01/29 07:40:12;;;;;;;12.93;10.37;;;;;;;;;;5032366;28;20186;-75
2022/01/29 07:42:37;;;;;;;10.30;6.03;;;;;;;;;;5035386;28;20206;-76
2022/01/29 07:45:02;;;;;;;7.43;5.73;;;;;;;;;;5033547;28;20181;-75
2022/01/29 07:47:28;;;;;;;7.17;4.87;;;;;;;;;;5034144;28;20265;-75
2022/01/29 07:49:53;;;;;;;6.63;5.07;;;;;;;;;;5031849;28;20186;-75
2022/01/29 07:52:18;;;;;;;8.00;4.83;;;;;;;;;;5032644;28;20212;-75
2022/01/29 07:54:43;;;;;;;8.00;5.60;;;;;;;;;;5031268;28;20206;-75
2022/01/29 07:57:08;;;;;;;7.10;5.13;;;;;;;;;;5050124;28;20182;-75
2022/01/29 07:59:33;;;;;;;6.37;4.73;;;;;;;;;;5031676;28;20288;-75
2022/01/29 08:01:59;;;;;;;5.47;4.40;;;;;;;;;;5033471;28;20225;-75
2022/01/29 08:04:24;;;;;;;5.63;4.30;;;;;;;;;;5033127;28;20190;-75
2022/01/29 08:06:50;;;;;;;4.07;3.60;;;;;;;;;;5036175;28;20194;-76
2022/01/29 08:09:15;;;;;;;5.27;4.43;;;;;;;;;;5031543;28;20170;-76
2022/01/29 08:11:40;;;;;;;7.73;5.90;;;;;;;;;;5029905;28;20178;-76
2022/01/29 08:14:05;;;;;;;7.20;5.60;;;;;;;;;;5031218;28;20170;-75
2022/01/29 08:16:31;;;;;;;8.47;4.70;;;;;;;;;;5031566;28;20182;-75
2022/01/29 08:18:56;;;;;;;5.17;4.03;;;;;;;;;;5029888;28;20178;-76
2022/01/29 08:21:21;;;;;;;5.97;4.90;;;;;;;;;;5032882;28;20181;-76
2022/01/29 08:23:47;;;;;;;6.70;3.93;;;;;;;;;;5050670;28;20193;-76
2022/01/29 08:26:12;;;;;;;6.53;4.87;;;;;;;;;;5031631;28;20189;-76
2022/01/29 08:28:38;;;;;;;6.17;4.30;;;;;;;;;;5033592;28;20178;-75
2022/01/29 08:31:03;;;;;;;7.80;5.63;;;;;;;;;;5032544;28;20185;-76
2022/01/29 08:33:29;;;;;;;6.57;4.73;;;;;;;;;;5036847;28;20202;-76
2022/01/29 08:35:56;;;;;;;6.67;4.80;;;;;;;;;;5049639;28;20178;-75
2022/01/29 08:38:22;;;;;;;7.00;4.93;;;;;;;;;;5034104;28;20181;-76
2022/01/29 08:40:47;;;;;;;6.80;4.60;;;;;;;;;;5032303;28;20182;-75
2022/01/29 08:43:12;;;;;;;6.63;5.33;;;;;;;;;;5025052;28;22094;-76
2022/01/29 08:45:37;;;;;;;6.03;4.47;;;;;;;;;;5032080;28;20365;-76
2022/01/29 08:48:03;;;;;;;5.60;4.50;;;;;;;;;;5026962;28;20186;-76
2022/01/29 08:50:28;;;;;;;8.10;5.67;;;;;;;;;;5033841;28;20181;-76
2022/01/29 08:52:53;;;;;;;3.83;3.17;;;;;;;;;;5028034;28;20182;-76
2022/01/29 08:55:18;;;;;;;6.87;5.13;;;;;;;;;;5047294;28;20174;-76
2022/01/29 08:57:45;;;;;;;6.13;4.53;;;;;;;;;;5032926;28;20182;-76
2022/01/29 09:00:12;;;;;;;6.50;4.63;;;;;;;;;;5027664;28;20290;-76
2022/01/29 09:02:37;;;;;;;7.20;5.20;;;;;;;;;;5032652;28;20269;-76
2022/01/29 09:05:03;;;;;;;5.90;4.90;;;;;;;;;;5029602;28;20260;-76
2022/01/29 09:07:28;;;;;;;7.60;4.97;;;;;;;;;;5030411;28;20186;-76
2022/01/29 09:09:54;;;;;;;6.80;4.23;;;;;;;;;;5031493;28;20209;-76
2022/01/29 09:12:20;;;;;;;6.53;4.23;;;;;;;;;;5032258;28;20463;-76
2022/01/29 09:14:45;;;;;;;5.47;3.50;;;;;;;;;;5027929;28;20276;-76
2022/01/29 09:17:10;;;;;;;4.90;3.37;;;;;;;;;;5029559;28;20197;-76
2022/01/29 09:19:36;;;;;;;3.87;3.40;;;;;;;;;;5048933;28;20182;-76
2022/01/29 09:22:01;;;;;;;4.70;3.00;;;;;;;;;;5048425;28;20205;-76
2022/01/29 09:24:26;;;;;;;4.40;3.50;;;;;;;;;;5031657;28;20178;-76
2022/01/29 09:26:51;;;;;;;2.80;2.47;;;;;;;;;;5029803;28;20171;-76
2022/01/29 09:29:16;;;;;;;4.00;3.37;;;;;;;;;;5030798;28;20319;-76
2022/01/29 09:31:42;;;;;;;4.97;3.80;;;;;;;;;;5032982;28;20170;-76
2022/01/29 09:34:07;;;;;;;12.17;5.50;;;;;;;;;;5031311;28;20201;-76
2022/01/29 09:36:33;;;;;;;5.13;3.63;;;;;;;;;;5050025;28;20430;-76
2022/01/29 09:38:58;;;;;;;3.60;2.47;;;;;;;;;;5032803;28;20228;-76
2022/01/29 09:41:24;;;;;;;3.67;2.67;;;;;;;;;;5035725;28;20202;-75
2022/01/29 09:43:50;;;;;;;2.43;2.10;;;;;;;;;;5034884;28;20202;-76
2022/01/29 09:46:16;;;;;;;3.80;2.37;;;;;;;;;;5033987;28;20179;-76
2022/01/29 09:48:42;;;;;;;3.43;2.80;;;;;;;;;;5032087;28;20173;-76
2022/01/29 09:51:12;;;;;;;2.93;2.50;;;;;;;;;;5039239;28;20240;-76
2022/01/29 09:53:37;;;;;;;2.83;2.60;;;;;;;;;;5031899;28;20183;-76
2022/01/29 09:56:03;;;;;;;2.97;2.00;;;;;;;;;;5035515;28;20220;-76
2022/01/29 09:58:28;;;;;;;2.53;2.10;;;;;;;;;;5034965;28;20185;-76
2022/01/29 10:00:53;;;;;;;1.83;1.67;;;;;;;;;;5036267;28;20189;-76
2022/01/29 10:03:19;;;;;;;1.87;1.77;;;;;;;;;;5039871;28;20488;-76
2022/01/29 10:05:51;;;;;;;2.43;2.17;;;;;;;;;;5035858;28;20171;-76
2022/01/29 10:08:17;;;;;;;2.67;2.23;;;;;;;;;;5037381;28;20185;-76
2022/01/29 10:10:46;;;;;;;5.97;3.63;;;;;;;;;;5036556;28;20176;-76
2022/01/29 10:13:23;;;;;;;2.83;2.60;;;;;;;;;;5034098;28;20182;-77
2022/01/29 10:15:49;;;;;;;3.73;2.83;;;;;;;;;;5033155;28;20189;-76
2022/01/29 10:18:24;;;;;;;3.07;2.47;;;;;;;;;;5033813;28;20246;-76
2022/01/29 10:20:50;;;;;;;3.60;2.67;;;;;;;;;;5034230;28;20177;-76
2022/01/29 10:23:15;;;;;;;8.43;5.33;;;;;;;;;;5035018;28;20267;-76
2022/01/29 10:25:43;;;;;;;2.97;2.40;;;;;;;;;;5035066;28;20182;-76
2022/01/29 10:28:19;;;;;;;4.97;2.67;;;;;;;;;;5034687;28;20246;-76
2022/01/29 10:30:50;;;;;;;2.03;1.83;;;;;;;;;;5053238;28;20230;-76
2022/01/29 10:33:19;;;;;;;4.07;2.97;;;;;;;;;;5052505;28;20205;-76
2022/01/29 10:35:46;;;;;;;1.83;1.50;;;;;;;;;;5034281;28;20182;-76
2022/01/29 10:38:12;;;;;;;1.70;1.60;;;;;;;;;;5034652;28;20190;-76
2022/01/29 10:40:38;;;;;;;2.10;1.80;;;;;;;;;;5034419;28;20208;-76
2022/01/29 10:43:04;;;;;;;1.83;1.30;;;;;;;;;;5032555;28;20202;-76
2022/01/29 10:45:33;;;;;;;2.20;1.60;;;;;;;;;;5033936;28;20181;-76
2022/01/29 10:47:59;;;;;;;1.57;1.37;;;;;;;;;;5050558;28;20181;-76
2022/01/29 10:50:24;;;;;;;1.90;1.40;;;;;;;;;;5033053;28;20187;-77
2022/01/29 10:52:50;;;;;;;3.07;2.83;;;;;;;;;;5052459;28;20197;-77
2022/01/29 10:55:15;;;;;;;1.63;1.30;;;;;;;;;;5051626;28;20239;-76
2022/01/29 10:57:41;;;;;;;1.30;0.80;;;;;;;;;;5034831;28;20178;-76
2022/01/29 11:00:08;;;;;;;1.00;0.80;;;;;;;;;;5034246;28;20229;-76
2022/01/29 11:02:34;;;;;;;0.80;0.80;;;;;;;;;;5051147;28;20205;-76
2022/01/29 11:05:04;;;;;;;0.80;0.80;;;;;;;;;;5051629;28;20178;-76
2022/01/29 11:07:30;;;;;;;0.80;0.80;;;;;;;;;;5034280;28;20220;-76
2022/01/29 11:09:56;;;;;;;1.00;0.90;;;;;;;;;;5033421;28;20196;-75
2022/01/29 11:12:23;;;;;;;1.00;0.90;;;;;;;;;;5038275;28;20193;-76
2022/01/29 11:14:49;;;;;;;0.90;0.90;;;;;;;;;;5034485;28;20174;-76
2022/01/29 11:17:15;;;;;;;0.60;0.60;;;;;;;;;;5054057;28;20217;-76
2022/01/29 11:19:40;;;;;;;0.80;0.80;;;;;;;;;;5043934;28;20174;-76
2022/01/29 11:22:06;;;;;;;1.20;1.10;;;;;;;;;;5048992;28;20280;-78
2022/01/29 11:24:32;;;;;;;1.63;1.30;;;;;;;;;;5036246;28;20213;-78
2022/01/29 11:26:57;;;;;;;1.13;1.10;;;;;;;;;;5035945;28;20288;-78
2022/01/29 11:29:24;;;;;;;0.53;0.53;;;;;;;;;;5031002;28;20252;-79
2022/01/29 11:32:09;;;;;;;0.67;0.67;;;;;;;;;;5042600;28;20182;-78
2022/01/29 11:34:54;;;;;;;0.97;0.83;;;;;;;;;;5030926;28;20206;-78
2022/01/29 11:37:35;;;;;;;0.60;0.60;;;;;;;;;;5035343;28;20202;-78
2022/01/29 11:40:09;;;;;;;0.60;0.60;;;;;;;;;;5033431;28;20177;-78
2022/01/29 11:42:34;;;;;;;1.00;1.00;;;;;;;;;;5049426;28;20232;-79
2022/01/29 11:45:19;;;;;;;0.90;0.90;;;;;;;;;;5033559;28;20209;-78
2022/01/29 11:47:45;;;;;;;2.17;1.53;;;;;;;;;;5051039;28;20186;-78
2022/01/29 11:50:20;;;;;;;1.20;1.10;;;;;;;;;;5037366;28;20178;-78
2022/01/29 11:52:55;;;;;;;0.80;0.80;;;;;;;;;;5033580;28;20219;-78
2022/01/29 11:55:37;;;;;;;1.97;1.10;;;;;;;;;;5047589;28;20185;-78
2022/01/29 11:58:21;;;;;;;0.77;0.77;;;;;;;;;;5035645;28;20188;-78
2022/01/29 12:00:53;;;;;;;1.40;1.20;;;;;;;;;;5046417;28;20234;-78
2022/01/29 12:03:41;;;;;;;2.73;2.03;;;;;;;;;;5035789;28;20229;-78
2022/01/29 12:09:07;;;;;;;2.40;2.20;;;;;;;;;;5049474;28;20232;-78
2022/01/29 12:11:38;;;;;;;1.37;1.27;;;;;;;;;;5031787;28;20236;-78
2022/01/29 12:14:13;;;;;;;1.40;1.10;;;;;;;;;;5049084;28;20174;-78
2022/01/29 12:16:48;;;;;;;2.73;1.73;;;;;;;;;;5029585;28;20253;-78
2022/01/29 12:19:32;;;;;;;1.00;1.00;;;;;;;;;;5031484;28;20174;-78
2022/01/29 12:21:58;;;;;;;1.80;1.53;;;;;;;;;;5032255;28;20264;-78
2022/01/29 12:24:24;;;;;;;18.83;9.47;;;;;;;;;;5032806;28;20185;-78
2022/01/29 12:26:53;;;;;;;1.03;0.80;;;;;;;;;;5033313;28;20411;-79
2022/01/29 12:29:18;;;;;;;1.13;1.07;;;;;;;;;;5032898;28;20171;-78
2022/01/29 12:31:50;;;;;;;2.40;2.20;;;;;;;;;;5032773;28;20185;-78
2022/01/29 12:34:15;;;;;;;2.70;2.50;;;;;;;;;;5030121;28;20202;-78
2022/01/29 12:36:41;;;;;;;3.87;3.47;;;;;;;;;;5032134;28;20193;-78
2022/01/29 12:39:08;;;;;;;2.00;1.80;;;;;;;;;;5050526;28;20185;-78
2022/01/29 12:41:38;;;;;;;0.80;0.80;;;;;;;;;;5031027;28;20217;-78
2022/01/29 12:44:08;;;;;;;0.87;0.87;;;;;;;;;;5032368;28;20296;-78
2022/01/29 12:46:34;;;;;;;1.00;0.90;;;;;;;;;;5032422;28;20269;-78
2022/01/29 12:49:07;;;;;;;0.90;0.90;;;;;;;;;;5050219;28;20173;-76
2022/01/29 12:51:33;;;;;;;1.63;1.53;;;;;;;;;;5048429;28;20179;-76
2022/01/29 12:53:59;;;;;;;1.77;1.40;;;;;;;;;;5033113;28;20200;-76
2022/01/29 12:56:32;;;;;;;0.90;0.90;;;;;;;;;;5033582;28;20300;-76
2022/01/29 12:58:58;;;;;;;1.00;0.90;;;;;;;;;;5032251;28;20316;-76
2022/01/29 13:01:24;;;;;;;0.73;0.73;;;;;;;;;;5031380;28;20274;-76
2022/01/29 13:03:49;;;;;;;0.60;0.60;;;;;;;;;;5013456;28;20199;-76
2022/01/29 13:06:16;;;;;;;0.50;0.50;;;;;;;;;;5014228;28;20209;-76
2022/01/29 13:08:41;;;;;;;2.43;0.90;;;;;;;;;;5013327;28;20186;-76
2022/01/29 13:11:20;;;;;;;0.93;0.93;;;;;;;;;;5014334;28;20174;-76
2022/01/29 13:13:45;;;;;;;0.60;0.60;;;;;;;;;;5021697;28;20176;-76
2022/01/29 13:16:11;;;;;;;0.77;0.77;;;;;;;;;;5009354;28;20175;-76
2022/01/29 13:18:36;;;;;;;1.00;0.90;;;;;;;;;;5012108;28;20210;-76
2022/01/29 13:21:01;;;;;;;1.50;1.40;;;;;;;;;;5027851;28;20256;-76
2022/01/29 13:23:31;;;;;;;1.27;0.93;;;;;;;;;;5017666;28;20198;-76
2022/01/29 13:25:56;;;;;;;0.90;0.90;;;;;;;;;;5011007;28;20460;-76
2022/01/29 13:28:27;;;;;;;2.03;1.83;;;;;;;;;;5023576;28;20257;-76
2022/01/29 13:31:00;;;;;;;1.30;1.20;;;;;;;;;;5030875;28;20205;-76
2022/01/29 13:33:32;;;;;;;2.00;1.80;;;;;;;;;;5026648;28;20294;-76
2022/01/29 13:35:57;;;;;;;1.27;1.17;;;;;;;;;;5012401;28;20179;-76
2022/01/29 13:38:24;;;;;;;1.30;1.20;;;;;;;;;;5011969;28;20179;-76
2022/01/29 13:40:51;;;;;;;0.70;0.70;;;;;;;;;;5012980;28;20178;-76
2022/01/29 13:43:25;;;;;;;1.30;1.20;;;;;;;;;;5027900;28;20213;-76
2022/01/29 13:45:50;;;;;;;2.50;1.63;;;;;;;;;;5006786;28;20185;-76
2022/01/29 13:48:16;;;;;;;1.50;1.20;;;;;;;;;;5026009;28;20191;-76
2022/01/29 13:50:54;;;;;;;1.27;1.17;;;;;;;;;;5010137;28;20191;-76
2022/01/29 13:53:20;;;;;;;1.30;1.10;;;;;;;;;;5013973;28;20254;-76
2022/01/29 13:55:55;;;;;;;0.50;0.50;;;;;;;;;;5014055;28;20217;-76
2022/01/29 13:58:20;;;;;;;0.57;0.57;;;;;;;;;;5011596;28;20217;-76
2022/01/29 14:00:54;;;;;;;8.53;6.30;;;;;;;;;;5033192;28;20221;-76
2022/01/29 14:03:19;;;;;;;0.60;0.60;;;;;;;;;;5032988;28;20206;-76
2022/01/29 14:05:45;;;;;;;0.97;0.90;;;;;;;;;;5034864;28;20181;-76
2022/01/29 14:08:13;;;;;;;1.20;1.10;;;;;;;;;;5036221;28;20185;-76
2022/01/29 14:10:39;;;;;;;1.50;1.10;;;;;;;;;;5045786;28;20178;-76
2022/01/29 14:13:04;;;;;;;0.80;0.80;;;;;;;;;;5031906;28;20197;-76
2022/01/29 14:15:29;;;;;;;1.13;0.95;;;;;;;;;;5037491;28;20206;-78
2022/01/29 14:17:54;;;;;;;0.90;0.90;;;;;;;;;;5030833;28;20175;-76
2022/01/29 14:20:19;;;;;;;0.70;0.70;;;;;;;;;;5034676;28;20178;-76
2022/01/29 14:22:45;;;;;;;0.60;0.60;;;;;;;;;;5027799;28;20292;-76
2022/01/29 14:25:14;;;;;;;1.57;1.17;;;;;;;;;;5028850;28;20345;-75
2022/01/29 14:27:40;;;;;;;0.70;0.70;;;;;;;;;;5034494;28;20179;-76
2022/01/29 14:30:06;;;;;;;1.57;1.47;;;;;;;;;;5036108;28;20170;-76
2022/01/29 14:32:31;;;;;;;1.00;0.97;;;;;;;;;;5034098;28;20204;-76
2022/01/29 14:34:56;;;;;;;3.37;2.20;;;;;;;;;;5032729;28;20244;-76
2022/01/29 14:37:21;;;;;;;1.87;1.77;;;;;;;;;;5035015;28;20186;-76
2022/01/29 14:39:47;;;;;;;1.17;1.07;;;;;;;;;;5033950;28;20185;-76
2022/01/29 14:42:13;;;;;;;0.63;0.63;;;;;;;;;;5032027;28;20205;-76
2022/01/29 14:44:42;;;;;;;1.47;1.30;;;;;;;;;;5033909;28;20212;-76
2022/01/29 14:47:08;;;;;;;1.27;1.17;;;;;;;;;;5035960;28;20186;-76
2022/01/29 14:49:34;;;;;;;2.93;1.63;;;;;;;;;;5042515;28;20179;-76